Time;durP1;ratioP1;P1;durP2;ratioP2;P2;SDS_P1;SDS_P2;PMS_P1;PMS_P2;Temp;Humidity;BMP_temperature;BMP_pressure;BME280_temperature;BME280_humidity;BME280_pressure;Samples;Min_cycle;Max_cycle;Signal;HPM_P1;HPM_P2
2022/10/07 00:01:45;;;;;;;9.88;4.05;;;9.80;99.90;;;;;;5075100;28;20031;-68
2022/10/07 00:04:11;;;;;;;11.10;4.28;;;9.70;99.90;;;;;;5091674;28;20055;-69
2022/10/07 00:06:37;;;;;;;10.02;4.20;;;9.80;99.90;;;;;;5064669;28;20036;-68
2022/10/07 00:09:03;;;;;;;8.80;4.40;;;9.70;99.90;;;;;;5090639;28;20118;-68
2022/10/07 00:11:28;;;;;;;12.07;4.25;;;9.70;99.90;;;;;;5074065;28;20059;-67
2022/10/07 00:14:00;;;;;;;10.93;4.70;;;9.70;99.90;;;;;;5109847;28;20027;-68
2022/10/07 00:16:37;;;;;;;12.05;4.10;;;9.60;99.90;;;;;;5109763;28;20069;-68
2022/10/07 00:19:06;;;;;;;11.15;4.38;;;9.60;99.90;;;;;;5074426;28;20035;-69
2022/10/07 00:21:33;;;;;;;7.68;4.47;;;9.60;99.90;;;;;;5091869;28;20043;-68
2022/10/07 00:23:59;;;;;;;10.20;4.20;;;9.60;99.90;;;;;;5091180;28;20043;-69
2022/10/07 00:26:28;;;;;;;11.05;5.35;;;9.60;99.90;;;;;;5109434;28;20143;-68
2022/10/07 00:28:54;;;;;;;10.35;4.32;;;9.60;99.90;;;;;;5091623;28;20043;-68
2022/10/07 00:31:29;;;;;;;19.20;4.80;;;9.60;99.90;;;;;;5055824;28;20040;-68
2022/10/07 00:33:55;;;;;;;10.27;4.20;;;9.60;99.90;;;;;;5088457;28;20043;-68
2022/10/07 00:36:33;;;;;;;12.73;4.22;;;9.60;99.90;;;;;;5074309;28;20039;-69
2022/10/07 00:39:07;;;;;;;11.77;4.72;;;9.60;99.90;;;;;;5102326;28;20044;-68
2022/10/07 00:41:38;;;;;;;11.35;4.22;;;9.60;99.90;;;;;;5072036;28;20040;-68
2022/10/07 00:44:28;;;;;;;15.80;4.25;;;9.60;99.90;;;;;;5090212;28;20101;-68
2022/10/07 00:46:55;;;;;;;9.88;4.40;;;9.60;99.90;;;;;;5071890;28;20036;-68
2022/10/07 00:49:21;;;;;;;12.45;4.72;;;9.60;99.90;;;;;;5078269;28;20658;-69
2022/10/07 00:51:49;;;;;;;7.82;4.28;;;9.60;99.90;;;;;;5079426;28;20036;-68
2022/10/07 00:54:17;;;;;;;9.60;4.43;;;9.50;99.90;;;;;;5085317;28;20047;-68
2022/10/07 00:56:45;;;;;;;12.05;4.45;;;9.50;99.90;;;;;;5091064;28;20054;-68
2022/10/07 00:59:14;;;;;;;11.50;4.38;;;9.50;99.90;;;;;;5074369;28;20157;-69
2022/10/07 01:01:40;;;;;;;13.75;4.60;;;9.50;99.90;;;;;;5090980;28;20036;-68
2022/10/07 01:04:08;;;;;;;10.57;4.85;;;9.50;99.90;;;;;;5091233;28;20028;-68
2022/10/07 01:06:38;;;;;;;10.00;4.30;;;9.40;99.90;;;;;;5057587;28;20043;-68
2022/10/07 01:09:04;;;;;;;9.45;4.45;;;9.40;99.90;;;;;;5074159;28;20411;-68
2022/10/07 01:11:53;;;;;;;9.02;4.40;;;9.40;99.90;;;;;;5075084;28;20438;-68
2022/10/07 01:14:39;;;;;;;10.40;4.65;;;9.40;99.90;;;;;;5074526;28;20395;-68
2022/10/07 01:17:32;;;;;;;15.00;5.18;;;9.40;99.90;;;;;;5091074;28;20160;-68
2022/10/07 01:20:10;;;;;;;11.77;4.32;;;9.40;99.90;;;;;;5073059;28;20051;-69
2022/10/07 01:23:12;;;;;;;12.55;4.90;;;9.40;99.90;;;;;;5091814;28;20409;-68
2022/10/07 01:26:22;;;;;;;9.35;4.25;;;9.40;99.90;;;;;;5008242;28;20132;-69
2022/10/07 01:29:02;;;;;;;7.70;4.20;;;9.30;99.90;;;;;;4990822;28;20258;-68
2022/10/07 01:31:36;;;;;;;10.70;4.07;;;9.30;99.90;;;;;;4974808;28;20042;-69
2022/10/07 01:34:04;;;;;;;12.65;4.43;;;9.30;99.90;;;;;;5045370;28;20122;-68
2022/10/07 01:36:32;;;;;;;12.57;4.30;;;9.30;99.90;;;;;;5095053;28;20067;-68
2022/10/07 01:39:04;;;;;;;12.57;5.50;;;9.30;99.90;;;;;;5094484;28;20049;-68
2022/10/07 01:41:31;;;;;;;10.17;4.07;;;9.30;99.90;;;;;;5112793;28;20118;-68
2022/10/07 01:43:58;;;;;;;10.48;4.88;;;9.30;99.90;;;;;;5094414;28;20152;-68
2022/10/07 01:46:26;;;;;;;10.93;4.70;;;9.30;99.90;;;;;;5077584;28;20118;-69
2022/10/07 01:48:53;;;;;;;10.90;4.47;;;9.20;99.90;;;;;;5094432;28;20072;-68
2022/10/07 01:51:24;;;;;;;11.38;4.40;;;9.20;99.90;;;;;;5077641;28;20036;-68
2022/10/07 01:54:01;;;;;;;8.45;4.40;;;9.20;99.90;;;;;;5094597;28;20035;-68
2022/10/07 01:56:49;;;;;;;8.85;4.75;;;9.20;99.90;;;;;;5112499;28;20031;-68
2022/10/07 01:59:36;;;;;;;14.50;4.47;;;9.10;99.90;;;;;;5094108;28;20093;-68
2022/10/07 02:02:33;;;;;;;14.38;4.50;;;9.10;99.90;;;;;;5112510;28;20111;-67
2022/10/07 02:05:13;;;;;;;11.60;5.03;;;9.00;99.90;;;;;;5094378;28;20138;-68
2022/10/07 02:07:47;;;;;;;8.20;4.07;;;9.00;99.90;;;;;;5061383;28;20036;-68
2022/10/07 02:11:01;;;;;;;10.93;4.18;;;9.00;99.90;;;;;;5094317;28;20039;-69
2022/10/07 02:13:35;;;;;;;15.45;4.70;;;9.00;99.90;;;;;;5009095;28;20041;-68
2022/10/07 02:16:19;;;;;;;14.50;4.55;;;9.00;99.90;;;;;;5026285;28;20052;-67
2022/10/07 02:18:50;;;;;;;10.88;3.80;;;9.00;99.90;;;;;;5064590;28;20131;-67
2022/10/07 02:21:20;;;;;;;10.65;5.03;;;9.00;99.90;;;;;;5094314;28;20382;-68
2022/10/07 02:23:48;;;;;;;10.52;4.22;;;9.00;99.90;;;;;;5072805;28;20036;-68
2022/10/07 02:26:18;;;;;;;11.50;4.78;;;9.00;99.90;;;;;;5058040;28;20046;-68
2022/10/07 02:28:46;;;;;;;12.40;4.80;;;9.00;99.90;;;;;;5090630;28;20036;-68
2022/10/07 02:31:16;;;;;;;10.27;4.85;;;9.00;99.90;;;;;;5092655;28;20036;-68
2022/10/07 02:33:45;;;;;;;11.48;4.70;;;8.90;99.90;;;;;;5094537;28;20083;-68
2022/10/07 02:36:21;;;;;;;9.20;4.15;;;8.90;99.90;;;;;;5074676;28;20075;-68
2022/10/07 02:38:48;;;;;;;11.10;4.45;;;8.90;99.90;;;;;;5083471;28;20128;-68
2022/10/07 02:41:34;;;;;;;13.70;4.25;;;8.90;99.90;;;;;;5070368;28;20047;-68
2022/10/07 02:44:14;;;;;;;10.13;3.92;;;8.90;99.90;;;;;;5070372;28;20052;-68
2022/10/07 02:46:48;;;;;;;17.45;4.43;;;8.90;99.90;;;;;;5072344;28;20122;-68
2022/10/07 02:49:16;;;;;;;11.88;4.28;;;8.90;99.90;;;;;;5071954;28;20035;-68
2022/10/07 02:52:04;;;;;;;11.40;4.57;;;8.90;99.90;;;;;;5051290;28;20131;-68
2022/10/07 02:54:56;;;;;;;10.93;4.47;;;8.90;99.90;;;;;;5056071;28;20124;-68
2022/10/07 02:57:25;;;;;;;13.90;4.43;;;8.90;99.90;;;;;;5090789;28;20165;-68
2022/10/07 02:59:52;;;;;;;13.25;4.55;;;8.90;99.90;;;;;;5090950;28;20032;-68
2022/10/07 03:02:31;;;;;;;13.48;4.72;;;8.90;99.90;;;;;;5072992;28;20047;-68
2022/10/07 03:04:57;;;;;;;9.98;4.60;;;8.90;99.90;;;;;;5070066;28;20150;-68
2022/10/07 03:07:24;;;;;;;12.55;5.00;;;8.80;99.90;;;;;;5072927;28;20044;-67
2022/10/07 03:09:51;;;;;;;8.98;4.22;;;8.80;99.90;;;;;;5056470;28;20039;-67
2022/10/07 03:12:16;;;;;;;12.00;5.30;;;8.80;99.90;;;;;;5071699;28;20520;-68
2022/10/07 03:14:43;;;;;;;12.18;5.10;;;8.80;99.90;;;;;;5053560;28;20036;-68
2022/10/07 03:17:10;;;;;;;12.27;4.88;;;8.80;99.90;;;;;;5069737;28;20044;-68
2022/10/07 03:19:36;;;;;;;13.10;5.13;;;8.80;99.90;;;;;;5071581;28;20044;-68
2022/10/07 03:22:02;;;;;;;14.57;5.30;;;8.80;99.90;;;;;;5053067;28;20047;-68
2022/10/07 03:24:31;;;;;;;12.25;5.43;;;8.80;99.90;;;;;;5019994;28;20025;-69
2022/10/07 03:26:56;;;;;;;11.73;4.95;;;8.80;99.90;;;;;;5052750;28;20043;-69
2022/10/07 03:29:24;;;;;;;11.98;4.70;;;8.80;99.90;;;;;;5073003;28;20037;-68
2022/10/07 03:31:50;;;;;;;8.75;5.43;;;8.80;99.90;;;;;;5036615;28;20497;-68
2022/10/07 03:34:16;;;;;;;18.92;5.40;;;8.80;99.90;;;;;;5069587;28;20120;-69
2022/10/07 03:36:41;;;;;;;17.88;5.68;;;8.50;99.90;;;;;;5052820;28;20123;-68
2022/10/07 03:39:07;;;;;;;17.10;5.80;;;8.80;99.90;;;;;;5050506;28;20063;-68
2022/10/07 03:41:33;;;;;;;12.10;5.40;;;8.80;99.90;;;;;;5067907;28;20032;-67
2022/10/07 03:44:00;;;;;;;17.83;5.25;;;8.80;99.90;;;;;;5069889;28;20045;-68
2022/10/07 03:46:26;;;;;;;16.40;5.72;;;8.80;99.90;;;;;;5054736;28;20459;-68
2022/10/07 03:48:51;;;;;;;15.20;5.53;;;8.90;99.90;;;;;;5071857;28;20420;-68
2022/10/07 03:51:17;;;;;;;16.73;5.32;;;8.90;99.90;;;;;;5088559;28;20032;-68
2022/10/07 03:53:43;;;;;;;14.52;5.18;;;8.90;99.90;;;;;;5089759;28;20420;-68
2022/10/07 03:56:08;;;;;;;16.45;5.40;;;9.00;99.90;;;;;;5072261;28;20032;-68
2022/10/07 03:58:34;;;;;;;15.60;4.80;;;9.00;99.90;;;;;;5088436;28;20042;-67
2022/10/07 04:01:08;;;;;;;18.48;5.22;;;9.00;99.90;;;;;;5088532;28;20032;-68
2022/10/07 04:03:34;;;;;;;16.33;4.95;;;9.00;99.90;;;;;;5071575;28;20554;-68
2022/10/07 04:06:02;;;;;;;12.50;5.55;;;9.00;99.90;;;;;;5071632;28;20040;-68
2022/10/07 04:08:29;;;;;;;18.70;5.22;;;9.00;99.90;;;;;;5078997;28;20501;-68
2022/10/07 04:10:56;;;;;;;12.25;5.15;;;9.00;99.90;;;;;;5088884;28;20036;-69
2022/10/07 04:13:22;;;;;;;14.98;5.97;;;9.00;99.90;;;;;;5071408;28;20098;-68
2022/10/07 04:15:48;;;;;;;10.98;5.07;;;8.90;99.90;;;;;;5088266;28;20131;-68
2022/10/07 04:18:13;;;;;;;10.63;4.55;;;9.00;99.90;;;;;;5073823;28;20166;-69
2022/10/07 04:20:39;;;;;;;12.40;4.78;;;8.90;99.90;;;;;;5052366;28;20046;-68
2022/10/07 04:23:05;;;;;;;13.38;4.97;;;8.90;99.90;;;;;;5052536;28;20037;-68
2022/10/07 04:25:34;;;;;;;16.42;5.00;;;8.90;99.90;;;;;;5035872;28;20032;-69
2022/10/07 04:28:06;;;;;;;20.10;5.90;;;8.90;99.90;;;;;;5070790;28;20063;-68
2022/10/07 04:30:37;;;;;;;19.52;5.05;;;8.90;99.90;;;;;;5077404;28;20035;-68
2022/10/07 04:33:03;;;;;;;14.10;4.80;;;8.90;99.90;;;;;;5088007;28;20086;-68
2022/10/07 04:35:29;;;;;;;16.55;5.25;;;8.90;99.90;;;;;;5069400;28;20409;-68
2022/10/07 04:37:55;;;;;;;17.23;5.25;;;8.90;99.90;;;;;;5071088;28;20041;-68
2022/10/07 04:40:23;;;;;;;16.38;5.03;;;8.90;99.90;;;;;;5090386;28;20055;-69
2022/10/07 04:45:35;;;;;;;14.02;5.00;;;8.90;99.90;;;;;;5091437;28;20040;-69
2022/10/07 04:48:02;;;;;;;18.02;5.40;;;8.80;99.90;;;;;;5074346;28;20051;-69
2022/10/07 04:50:28;;;;;;;12.77;5.28;;;8.80;99.90;;;;;;5074504;28;20500;-69
2022/10/07 04:52:54;;;;;;;14.20;4.50;;;8.80;99.90;;;;;;5091292;28;20040;-68
2022/10/07 04:55:20;;;;;;;15.45;5.35;;;8.80;99.90;;;;;;5091375;28;20544;-69
2022/10/07 04:57:45;;;;;;;16.48;5.47;;;8.80;99.90;;;;;;5094324;28;20059;-69
2022/10/07 05:00:12;;;;;;;15.05;5.40;;;8.80;99.90;;;;;;5075854;28;20445;-69
2022/10/07 05:02:38;;;;;;;16.05;5.40;;;8.80;99.90;;;;;;5070204;28;20134;-69
2022/10/07 05:05:04;;;;;;;15.23;5.20;;;8.80;99.90;;;;;;5063464;28;20107;-68
2022/10/07 05:07:31;;;;;;;17.13;5.35;;;8.80;99.90;;;;;;5042873;28;20697;-69
2022/10/07 05:09:57;;;;;;;14.88;4.72;;;8.80;99.90;;;;;;5077224;28;20081;-68
2022/10/07 05:12:25;;;;;;;14.15;5.25;;;8.80;99.90;;;;;;5113239;28;20510;-68
2022/10/07 05:14:51;;;;;;;13.48;6.35;;;8.80;99.90;;;;;;5095394;28;20039;-69
2022/10/07 05:17:17;;;;;;;13.63;5.20;;;8.80;99.90;;;;;;5078121;28;20047;-69
2022/10/07 05:19:43;;;;;;;18.50;5.88;;;8.80;99.90;;;;;;5077959;28;20071;-69
2022/10/07 05:22:09;;;;;;;18.08;5.60;;;8.80;99.90;;;;;;5077906;28;20082;-69
2022/10/07 05:24:35;;;;;;;17.58;5.63;;;8.80;99.90;;;;;;5095123;28;20047;-69
2022/10/07 05:27:01;;;;;;;14.38;5.32;;;8.80;99.90;;;;;;5094702;28;20031;-69
2022/10/07 05:29:26;;;;;;;16.73;6.00;;;8.80;99.90;;;;;;5112897;28;20036;-68
2022/10/07 05:31:52;;;;;;;17.15;5.57;;;8.80;99.90;;;;;;5094643;28;20046;-69
2022/10/07 05:34:19;;;;;;;12.23;5.03;;;8.80;99.90;;;;;;5095173;28;20120;-69
2022/10/07 05:36:44;;;;;;;14.73;5.53;;;8.80;99.90;;;;;;5059097;28;20403;-69
2022/10/07 05:39:10;;;;;;;15.55;5.57;;;8.80;99.90;;;;;;5075000;28;20048;-69
2022/10/07 05:41:38;;;;;;;13.98;6.00;;;8.80;99.90;;;;;;5075238;28;20122;-69
2022/10/07 05:44:04;;;;;;;19.77;5.50;;;8.80;99.90;;;;;;5074801;28;20473;-69
2022/10/07 05:46:29;;;;;;;15.48;5.80;;;8.70;99.90;;;;;;5093553;28;20136;-69
2022/10/07 05:48:55;;;;;;;17.35;5.60;;;8.70;99.90;;;;;;5092990;28;20528;-69
2022/10/07 05:51:23;;;;;;;16.98;5.95;;;8.70;99.90;;;;;;5058685;28;20043;-69
2022/10/07 05:53:54;;;;;;;13.20;5.25;;;8.70;99.90;;;;;;5058139;28;20052;-69
2022/10/07 05:56:22;;;;;;;17.83;5.30;;;8.70;99.90;;;;;;5092999;28;20114;-69
2022/10/07 05:58:52;;;;;;;16.40;5.75;;;8.70;99.90;;;;;;5057740;28;20047;-69
2022/10/07 06:01:22;;;;;;;18.48;5.78;;;8.70;99.90;;;;;;5058519;28;20032;-69
2022/10/07 06:03:54;;;;;;;14.30;5.43;;;8.70;99.90;;;;;;5074215;28;20477;-69
2022/10/07 06:06:20;;;;;;;13.35;5.60;;;8.80;99.90;;;;;;5074894;28;20456;-68
2022/10/07 06:08:46;;;;;;;16.17;6.50;;;8.80;99.90;;;;;;5087682;28;20213;-69
2022/10/07 06:13:59;;;;;;;16.45;5.80;;;8.80;99.90;;;;;;5093596;28;20048;-69
2022/10/07 06:16:25;;;;;;;14.55;5.15;;;8.80;99.90;;;;;;5094287;28;20036;-69
2022/10/07 06:18:52;;;;;;;18.23;5.32;;;8.80;99.90;;;;;;5093296;28;20054;-69
2022/10/07 06:21:19;;;;;;;11.38;5.15;;;8.80;99.90;;;;;;5076789;28;20476;-68
2022/10/07 06:23:52;;;;;;;14.82;5.35;;;8.80;99.90;;;;;;5093927;28;20046;-69
2022/10/07 06:26:19;;;;;;;21.73;5.53;;;8.80;99.90;;;;;;5093770;28;20039;-69
2022/10/07 06:28:45;;;;;;;15.65;5.25;;;8.90;99.90;;;;;;5093616;28;20040;-68
2022/10/07 06:31:13;;;;;;;17.67;5.82;;;8.90;99.90;;;;;;5076713;28;20042;-68
2022/10/07 06:33:39;;;;;;;14.10;5.32;;;9.00;99.90;;;;;;5093494;28;20039;-69
2022/10/07 06:36:09;;;;;;;18.55;5.75;;;8.90;99.90;;;;;;5093424;28;20127;-69
2022/10/07 06:38:35;;;;;;;13.45;5.25;;;8.90;99.90;;;;;;5074173;28;20059;-69
2022/10/07 06:41:03;;;;;;;18.60;5.05;;;9.00;99.90;;;;;;5074353;28;20044;-69
2022/10/07 06:43:30;;;;;;;19.95;5.78;;;9.00;99.90;;;;;;5074261;28;20501;-69
2022/10/07 06:46:03;;;;;;;16.08;5.53;;;9.00;99.90;;;;;;5074486;28;20040;-69
2022/10/07 06:48:31;;;;;;;17.80;6.35;;;9.10;99.90;;;;;;5074288;28;20028;-69
2022/10/07 06:50:58;;;;;;;19.58;6.38;;;9.10;99.90;;;;;;5073932;28;20035;-68
2022/10/07 06:53:25;;;;;;;16.67;5.15;;;9.20;99.90;;;;;;5092382;28;20031;-69
2022/10/07 06:55:53;;;;;;;18.70;5.07;;;9.30;99.90;;;;;;5057216;28;20505;-69
2022/10/07 06:58:23;;;;;;;16.38;5.90;;;9.30;99.90;;;;;;5074039;28;20028;-69
2022/10/07 07:00:49;;;;;;;14.95;5.53;;;9.40;99.90;;;;;;5073732;28;20536;-69
2022/10/07 07:03:16;;;;;;;21.73;5.53;;;9.50;99.90;;;;;;5076261;28;20042;-69
2022/10/07 07:05:42;;;;;;;12.57;4.97;;;9.60;99.90;;;;;;5111486;28;20402;-69
2022/10/07 07:08:08;;;;;;;18.77;5.32;;;9.60;99.90;;;;;;5092746;28;20046;-69
2022/10/07 07:10:39;;;;;;;16.13;4.47;;;9.70;99.90;;;;;;5076219;28;20036;-69
2022/10/07 07:13:07;;;;;;;13.13;4.78;;;9.70;99.90;;;;;;5041260;28;20040;-69
2022/10/07 07:15:37;;;;;;;19.23;5.40;;;9.80;99.90;;;;;;5110999;28;20082;-69
2022/10/07 07:18:05;;;;;;;19.98;5.47;;;9.90;99.90;;;;;;5092617;28;20050;-69
2022/10/07 07:20:36;;;;;;;13.25;5.25;;;9.90;99.90;;;;;;5110679;28;20403;-69
2022/10/07 07:23:08;;;;;;;21.45;5.60;;;10.00;99.90;;;;;;5075981;28;20032;-69
2022/10/07 07:25:37;;;;;;;16.50;5.30;;;10.00;99.90;;;;;;5073731;28;20067;-69
2022/10/07 07:28:03;;;;;;;16.17;4.82;;;10.10;99.90;;;;;;5056556;28;20382;-69
2022/10/07 07:30:30;;;;;;;22.00;5.13;;;10.00;99.90;;;;;;5073464;28;20058;-69
2022/10/07 07:32:56;;;;;;;18.45;5.13;;;10.10;99.90;;;;;;5056537;28;20531;-69
2022/10/07 07:35:27;;;;;;;18.30;5.90;;;10.10;99.90;;;;;;5091389;28;20497;-68
2022/10/07 07:37:53;;;;;;;15.05;4.65;;;10.20;99.90;;;;;;5093716;28;20047;-69
2022/10/07 07:40:20;;;;;;;14.70;4.78;;;10.20;99.90;;;;;;5088880;28;20496;-69
2022/10/07 07:42:47;;;;;;;14.70;5.20;;;10.30;99.90;;;;;;5088623;28;20035;-69
2022/10/07 07:45:13;;;;;;;14.25;4.32;;;10.30;99.90;;;;;;5088970;28;20473;-69
2022/10/07 07:47:39;;;;;;;16.25;5.15;;;10.40;99.90;;;;;;5085545;28;20032;-69
2022/10/07 07:50:06;;;;;;;11.30;5.03;;;10.40;99.90;;;;;;5072064;28;20043;-69
2022/10/07 07:52:33;;;;;;;10.13;4.03;;;10.50;99.90;;;;;;5088650;28;20032;-69
2022/10/07 07:55:02;;;;;;;21.45;5.70;;;10.60;99.90;;;;;;5080967;28;20388;-69
2022/10/07 07:57:29;;;;;;;16.98;5.07;;;10.70;99.90;;;;;;5055290;28;20093;-69
2022/10/07 07:59:55;;;;;;;9.27;3.63;;;10.70;99.90;;;;;;5071473;28;20126;-69
2022/10/07 08:02:22;;;;;;;16.17;4.40;;;10.80;99.90;;;;;;5089900;28;20036;-69
2022/10/07 08:04:48;;;;;;;15.73;3.95;;;10.90;99.90;;;;;;5088636;28;20032;-69
2022/10/07 08:07:14;;;;;;;16.63;4.57;;;10.90;99.90;;;;;;5089441;28;20078;-68
2022/10/07 08:09:40;;;;;;;11.52;4.63;;;11.10;99.90;;;;;;5089604;28;20040;-68
2022/10/07 08:12:06;;;;;;;15.45;4.28;;;11.20;99.90;;;;;;5088582;28;20047;-69
2022/10/07 08:14:32;;;;;;;14.82;4.47;;;11.30;99.90;;;;;;5087873;28;20036;-69
2022/10/07 08:16:59;;;;;;;11.90;3.90;;;11.30;99.90;;;;;;5087883;28;20047;-69
2022/10/07 08:19:29;;;;;;;10.88;4.07;;;11.40;99.90;;;;;;5088123;28;20451;-69
2022/10/07 08:21:56;;;;;;;14.82;4.28;;;11.50;99.90;;;;;;5055475;28;20043;-69
2022/10/07 08:24:24;;;;;;;18.85;5.18;;;11.50;99.90;;;;;;5071553;28;20398;-69
2022/10/07 08:26:52;;;;;;;7.72;3.42;;;11.70;99.90;;;;;;5070940;28;20032;-69
2022/10/07 08:29:19;;;;;;;12.38;3.80;;;11.80;99.90;;;;;;5088147;28;20050;-69
2022/10/07 08:31:46;;;;;;;12.45;3.30;;;11.90;99.90;;;;;;5070737;28;20123;-69
2022/10/07 08:34:12;;;;;;;10.98;4.20;;;12.10;99.90;;;;;;5088164;28;20028;-69
2022/10/07 08:36:38;;;;;;;13.98;4.72;;;12.10;99.90;;;;;;5088151;28;20039;-69
2022/10/07 08:39:04;;;;;;;9.85;4.00;;;12.20;99.90;;;;;;5091225;28;20074;-69
2022/10/07 08:41:33;;;;;;;15.68;4.03;;;12.20;99.90;;;;;;5091492;28;20484;-69
2022/10/07 08:44:18;;;;;;;17.50;3.42;;;12.30;99.90;;;;;;5072361;28;20032;-69
2022/10/07 08:46:49;;;;;;;16.65;4.70;;;12.40;99.90;;;;;;5072456;28;20332;-69
2022/10/07 08:49:18;;;;;;;14.40;3.80;;;12.40;99.90;;;;;;5071903;28;20043;-69
2022/10/07 08:51:53;;;;;;;13.82;3.85;;;12.50;99.90;;;;;;5055488;28;20568;-69
2022/10/07 08:54:26;;;;;;;16.65;4.13;;;12.60;99.90;;;;;;5072158;28;20047;-69
2022/10/07 08:56:53;;;;;;;;;;;12.70;99.90;;;;;;5055538;28;20040;-69
2022/10/07 08:59:28;;;;;;;11.02;3.40;;;12.80;99.90;;;;;;5072349;28;19927;-69
2022/10/07 09:02:33;;;;;;;13.32;3.70;;;12.90;99.90;;;;;;5079183;28;20035;-69
2022/10/07 09:05:25;;;;;;;13.00;3.78;;;12.90;99.90;;;;;;5061605;28;20115;-69
2022/10/07 09:07:58;;;;;;;20.33;4.28;;;13.00;99.90;;;;;;5086503;28;20043;-69
2022/10/07 09:10:33;;;;;;;13.52;4.07;;;13.10;99.90;;;;;;5079160;28;20051;-69
2022/10/07 09:13:12;;;;;;;11.55;3.72;;;13.10;99.90;;;;;;5071873;28;20126;-69
2022/10/07 09:15:48;;;;;;;15.63;3.72;;;13.10;99.90;;;;;;5072194;28;20044;-69
2022/10/07 09:18:32;;;;;;;18.73;4.18;;;13.10;99.90;;;;;;5071866;28;20036;-69
2022/10/07 09:21:01;;;;;;;15.75;4.05;;;13.20;99.90;;;;;;5072209;28;20401;-70
2022/10/07 09:23:30;;;;;;;12.75;3.90;;;13.30;99.90;;;;;;5107160;28;20039;-69
2022/10/07 09:25:56;;;;;;;17.35;3.55;;;13.60;99.90;;;;;;5091234;28;20040;-69
2022/10/07 09:28:29;;;;;;;17.17;3.53;;;13.70;99.90;;;;;;5074005;28;20472;-69
2022/10/07 09:30:57;;;;;;;8.73;3.22;;;13.80;99.90;;;;;;5073869;28;20100;-69
2022/10/07 09:33:24;;;;;;;15.73;3.70;;;13.90;99.90;;;;;;5108582;28;20508;-70
2022/10/07 09:35:57;;;;;;;12.90;3.85;;;14.10;99.90;;;;;;5081963;28;20092;-69
2022/10/07 09:38:36;;;;;;;16.27;4.15;;;14.20;99.90;;;;;;5054862;28;20036;-69
2022/10/07 09:41:23;;;;;;;9.15;3.15;;;14.30;99.90;;;;;;5055317;28;20394;-69
2022/10/07 09:44:25;;;;;;;14.50;4.07;;;14.40;99.90;;;;;;5089312;28;20057;-70
2022/10/07 09:46:58;;;;;;;14.95;3.25;;;14.60;99.90;;;;;;5039052;28;20044;-69
2022/10/07 09:49:27;;;;;;;8.95;3.45;;;14.70;99.90;;;;;;5094151;28;20433;-69
2022/10/07 09:52:13;;;;;;;11.18;2.97;;;14.90;99.90;;;;;;5074856;28;20485;-69
2022/10/07 09:54:40;;;;;;;17.25;3.40;;;15.00;99.90;;;;;;5075266;28;20044;-69
2022/10/07 09:57:33;;;;;;;18.95;3.22;;;15.10;99.90;;;;;;5075066;28;20028;-69
2022/10/07 10:00:11;;;;;;;10.98;3.45;;;15.30;99.90;;;;;;5075002;28;20028;-69
2022/10/07 10:02:46;;;;;;;8.23;3.05;;;15.50;99.90;;;;;;5074926;28;20488;-69
2022/10/07 10:05:20;;;;;;;16.45;3.95;;;15.50;99.90;;;;;;5074927;28;20115;-69
2022/10/07 10:07:51;;;;;;;14.93;3.17;;;15.50;99.90;;;;;;5084457;28;20141;-68
2022/10/07 10:10:21;;;;;;;8.40;3.80;;;15.60;99.90;;;;;;5075131;28;20073;-69
2022/10/07 10:12:52;;;;;;;10.75;3.30;;;15.60;99.90;;;;;;5092585;28;20028;-69
2022/10/07 10:15:39;;;;;;;12.75;3.33;;;15.60;99.90;;;;;;5058407;28;20047;-68
2022/10/07 10:18:26;;;;;;;12.73;3.05;;;15.80;99.90;;;;;;5074395;28;20043;-69
2022/10/07 10:20:52;;;;;;;10.48;3.20;;;15.90;99.90;;;;;;5074570;28;20048;-69
2022/10/07 10:23:34;;;;;;;13.45;3.65;;;16.10;99.90;;;;;;5074206;28;20560;-69
2022/10/07 10:26:25;;;;;;;12.55;3.15;;;16.20;99.90;;;;;;5057717;28;20042;-69
2022/10/07 10:29:18;;;;;;;16.17;4.15;;;16.30;99.90;;;;;;5074585;28;20040;-69
2022/10/07 10:32:18;;;;;;;11.63;3.10;;;16.40;99.90;;;;;;5074260;28;20028;-69
2022/10/07 10:34:47;;;;;;;16.05;3.72;;;16.50;99.90;;;;;;5056158;28;20059;-70
2022/10/07 10:37:17;;;;;;;14.18;3.00;;;16.60;99.90;;;;;;5076296;28;20083;-69
2022/10/07 10:40:13;;;;;;;14.45;2.90;;;16.60;99.90;;;;;;5111530;28;20062;-69
2022/10/07 10:42:53;;;;;;;11.15;2.90;;;16.70;99.90;;;;;;5111541;28;20055;-69
2022/10/07 10:45:53;;;;;;;13.68;3.25;;;16.90;99.90;;;;;;5093125;28;20456;-69
2022/10/07 10:49:05;;;;;;;12.93;3.40;;;17.00;99.90;;;;;;5104562;28;20032;-69
2022/10/07 10:51:56;;;;;;;12.07;3.40;;;17.00;99.90;;;;;;5055179;28;20493;-69
2022/10/07 10:54:37;;;;;;;15.07;3.45;;;17.00;99.90;;;;;;5057022;28;20048;-69
2022/10/07 10:57:30;;;;;;;13.93;2.92;;;17.00;99.90;;;;;;5073829;28;20038;-70
2022/10/07 11:00:11;;;;;;;10.95;3.08;;;17.10;99.90;;;;;;5092401;28;20039;-68
2022/10/07 11:02:37;;;;;;;11.27;2.90;;;17.20;99.90;;;;;;5073890;28;20039;-69
2022/10/07 11:05:27;;;;;;;8.30;2.50;;;17.30;99.90;;;;;;5092016;28;20032;-69
2022/10/07 11:08:17;;;;;;;10.90;3.10;;;17.30;99.90;;;;;;5109082;28;20531;-69
2022/10/07 11:10:56;;;;;;;8.55;2.90;;;17.40;99.90;;;;;;5080990;28;20051;-69
2022/10/07 11:13:33;;;;;;;11.35;2.90;;;17.20;99.90;;;;;;5091768;28;20046;-69
2022/10/07 11:16:07;;;;;;;10.88;2.65;;;17.20;99.90;;;;;;5073800;28;20692;-69
2022/10/07 11:18:44;;;;;;;9.35;3.38;;;17.20;99.90;;;;;;5073557;28;20047;-69
2022/10/07 11:21:36;;;;;;;14.70;3.38;;;17.30;99.90;;;;;;5073466;28;20040;-69
2022/10/07 11:24:12;;;;;;;11.18;2.97;;;17.40;99.90;;;;;;5060467;28;20064;-68
2022/10/07 11:26:46;;;;;;;14.00;3.35;;;17.70;99.90;;;;;;5073468;28;20044;-69
2022/10/07 11:29:19;;;;;;;10.50;3.13;;;17.80;99.90;;;;;;5109348;28;20062;-69
2022/10/07 11:31:54;;;;;;;11.48;2.97;;;17.80;99.90;;;;;;5075646;28;20038;-69
2022/10/07 11:34:38;;;;;;;17.48;3.58;;;17.70;99.90;;;;;;5092185;28;20086;-69
2022/10/07 11:37:22;;;;;;;18.10;3.88;;;17.70;99.90;;;;;;5092316;28;20039;-69
2022/10/07 11:39:48;;;;;;;11.10;3.05;;;17.80;99.90;;;;;;5088887;28;20051;-69
2022/10/07 11:42:41;;;;;;;11.23;3.08;;;17.80;99.90;;;;;;5088766;28;20047;-69
2022/10/07 11:45:15;;;;;;;12.13;3.60;;;17.90;99.90;;;;;;5076180;28;20505;-69
2022/10/07 11:47:47;;;;;;;12.40;3.33;;;17.80;99.90;;;;;;5088695;28;20077;-69
2022/10/07 11:50:15;;;;;;;10.17;3.27;;;17.60;99.90;;;;;;5089807;28;20036;-69
2022/10/07 11:52:45;;;;;;;9.73;3.10;;;17.30;99.90;;;;;;5071860;28;20120;-69
2022/10/07 11:55:46;;;;;;;19.85;3.72;;;17.50;99.90;;;;;;5052804;28;20047;-69
2022/10/07 11:58:24;;;;;;;14.35;3.10;;;17.50;99.90;;;;;;5069014;28;20516;-69
2022/10/07 12:01:27;;;;;;;9.63;2.53;;;17.40;99.90;;;;;;5088682;28;20090;-69
2022/10/07 12:04:16;;;;;;;9.95;3.20;;;17.40;99.90;;;;;;5088465;28;20127;-68
2022/10/07 12:07:32;;;;;;;12.50;3.22;;;17.50;99.90;;;;;;5043249;28;20045;-69
2022/10/07 12:09:58;;;;;;;12.55;3.25;;;17.70;99.90;;;;;;5046826;28;20302;-69
2022/10/07 12:12:24;;;;;;;11.13;3.03;;;17.70;99.90;;;;;;5080723;28;20032;-68
2022/10/07 12:15:01;;;;;;;11.38;3.15;;;17.70;99.90;;;;;;5070550;28;20375;-68
2022/10/07 12:17:29;;;;;;;10.35;3.22;;;17.60;99.90;;;;;;5052572;28;20051;-69
2022/10/07 12:20:43;;;;;;;8.68;3.25;;;17.60;99.90;;;;;;5068866;28;20508;-69
2022/10/07 12:23:19;;;;;;;13.13;3.05;;;17.70;99.90;;;;;;5052515;28;20028;-69
2022/10/07 12:25:54;;;;;;;11.63;2.83;;;17.70;99.90;;;;;;5052752;28;20040;-69
2022/10/07 12:28:38;;;;;;;10.57;2.65;;;17.60;99.90;;;;;;5072340;28;20509;-69
2022/10/07 12:31:15;;;;;;;8.02;2.60;;;17.70;99.90;;;;;;5069550;28;20047;-69
2022/10/07 12:33:44;;;;;;;9.20;2.63;;;17.80;99.90;;;;;;5071559;28;20393;-70
2022/10/07 12:36:24;;;;;;;13.45;2.47;;;17.80;99.90;;;;;;5068966;28;20398;-71
2022/10/07 12:38:59;;;;;;;11.63;2.90;;;17.80;99.90;;;;;;5068875;28;20049;-70
2022/10/07 12:41:41;;;;;;;10.30;2.67;;;17.60;99.90;;;;;;5069867;28;20041;-70
2022/10/07 12:44:22;;;;;;;11.25;2.70;;;17.60;99.90;;;;;;5070001;28;20055;-70
2022/10/07 12:46:59;;;;;;;11.10;2.80;;;17.50;99.90;;;;;;5051991;28;20047;-70
2022/10/07 12:49:35;;;;;;;12.15;3.10;;;17.30;99.90;;;;;;5088688;28;20088;-70
2022/10/07 12:52:36;;;;;;;11.88;3.35;;;17.30;99.90;;;;;;5087888;28;20048;-70
2022/10/07 12:55:12;;;;;;;10.75;3.03;;;17.20;99.90;;;;;;5083002;28;20060;-70
2022/10/07 12:57:41;;;;;;;15.60;3.22;;;17.20;99.90;;;;;;5089037;28;20044;-70
2022/10/07 13:00:23;;;;;;;10.95;2.88;;;17.20;99.90;;;;;;5087848;28;20130;-70
2022/10/07 13:03:13;;;;;;;15.47;3.47;;;17.20;99.90;;;;;;5087554;28;20120;-70
2022/10/07 13:05:57;;;;;;;11.27;2.42;;;17.30;99.90;;;;;;5068854;28;20037;-70
2022/10/07 13:08:48;;;;;;;7.18;2.95;;;17.30;99.90;;;;;;5068821;28;20040;-70
2022/10/07 13:11:56;;;;;;;6.53;2.80;;;17.30;99.90;;;;;;5068877;28;20459;-70
2022/10/07 13:14:49;;;;;;;8.88;2.75;;;17.40;99.90;;;;;;4989416;28;20048;-70
2022/10/07 13:17:46;;;;;;;13.18;2.85;;;17.40;99.90;;;;;;5068835;28;20367;-71
2022/10/07 13:20:37;;;;;;;10.90;2.65;;;17.30;99.90;;;;;;5069537;28;20147;-70